createdAt,value
2024-01-14T00:00:12.214Z,-0.87
2024-01-14T00:02:40.055Z,-0.89
2024-01-14T00:05:07.927Z,-0.93
2024-01-14T00:07:34.976Z,-0.97
2024-01-14T00:10:01.730Z,-1.01
2024-01-14T00:12:28.582Z,-1.03
2024-01-14T00:14:55.470Z,-1.08
2024-01-14T00:17:22.314Z,-1.10
2024-01-14T00:19:49.270Z,-1.11
2024-01-14T00:22:17.733Z,-1.17
2024-01-14T00:24:45.947Z,-1.19
2024-01-14T00:27:13.537Z,-1.21
2024-01-14T00:29:41.180Z,-1.23
2024-01-14T00:32:08.493Z,-1.25
2024-01-14T00:34:35.677Z,-1.26
2024-01-14T00:37:02.545Z,-1.26
2024-01-14T00:39:30.128Z,-1.28
2024-01-14T00:41:57.031Z,-1.30
2024-01-14T00:44:27.256Z,-1.31
2024-01-14T00:46:54.409Z,-1.31
2024-01-14T00:49:21.186Z,-1.33
2024-01-14T00:51:48.061Z,-1.32
2024-01-14T00:54:14.863Z,-1.33
2024-01-14T00:56:42.878Z,-1.33
2024-01-14T00:59:09.568Z,-1.34
2024-01-14T01:01:36.361Z,-1.33
2024-01-14T01:04:03.234Z,-1.32
2024-01-14T01:06:30.339Z,-1.33
2024-01-14T01:08:57.235Z,-1.33
2024-01-14T01:11:23.999Z,-1.32
2024-01-14T01:13:50.836Z,-1.32
2024-01-14T01:16:17.529Z,-1.34
2024-01-14T01:18:44.457Z,-1.39
2024-01-14T01:21:11.339Z,-1.37
2024-01-14T01:23:38.431Z,-1.39
2024-01-14T01:26:05.324Z,-1.36
2024-01-14T01:28:32.034Z,-1.36
2024-01-14T01:30:58.885Z,-1.37
2024-01-14T01:33:25.787Z,-1.38
2024-01-14T01:35:52.575Z,-1.38
2024-01-14T01:38:19.440Z,-1.38
2024-01-14T01:40:47.488Z,-1.40
2024-01-14T01:43:14.601Z,-1.40
2024-01-14T01:45:41.278Z,-1.40
2024-01-14T01:48:08.467Z,-1.40
2024-01-14T01:50:37.416Z,-1.41
2024-01-14T01:53:04.676Z,-1.41
2024-01-14T01:55:31.301Z,-1.40
2024-01-14T01:57:58.134Z,-1.40
2024-01-14T02:00:24.823Z,-1.40
2024-01-14T02:02:51.980Z,-1.39
2024-01-14T02:05:20.511Z,-1.40
2024-01-14T02:07:47.336Z,-1.41
2024-01-14T02:10:13.972Z,-1.41
2024-01-14T02:12:40.691Z,-1.41
2024-01-14T02:15:07.777Z,-1.41
2024-01-14T02:17:34.613Z,-1.43
2024-01-14T02:20:01.281Z,-1.42
2024-01-14T02:22:30.141Z,-1.42
2024-01-14T02:24:56.875Z,-1.44
2024-01-14T02:27:24.111Z,-1.45
2024-01-14T02:29:51.188Z,-1.46
2024-01-14T02:32:18.794Z,-1.47
2024-01-14T02:34:45.684Z,-1.49
2024-01-14T02:37:12.442Z,-1.50
2024-01-14T02:39:39.256Z,-1.53
2024-01-14T02:42:06.243Z,-1.54
2024-01-14T02:44:33.136Z,-1.56
2024-01-14T02:47:00.083Z,-1.58
2024-01-14T02:49:28.282Z,-1.61
2024-01-14T02:51:55.211Z,-1.62
2024-01-14T02:54:21.912Z,-1.65
2024-01-14T02:56:48.800Z,-1.67
2024-01-14T02:59:15.553Z,-1.72
2024-01-14T03:01:49.312Z,-1.75
2024-01-14T03:04:16.276Z,-1.80
2024-01-14T03:06:43.087Z,-1.83
2024-01-14T03:09:10.409Z,-1.89
2024-01-14T03:11:37.287Z,-1.92
2024-01-14T03:14:04.083Z,-1.96
2024-01-14T03:16:31.027Z,-1.99
2024-01-14T03:18:57.862Z,-2.03
2024-01-14T03:21:24.666Z,-2.06
2024-01-14T03:23:51.357Z,-2.12
2024-01-14T03:26:18.026Z,-2.15
2024-01-14T03:28:44.689Z,-2.16
2024-01-14T03:31:18.139Z,-2.18
2024-01-14T03:33:45.162Z,-2.21
2024-01-14T03:36:15.955Z,-2.26
2024-01-14T03:38:43.480Z,-2.23
2024-01-14T03:41:10.179Z,-2.24
2024-01-14T03:43:37.076Z,-2.25
2024-01-14T03:46:03.893Z,-2.24
2024-01-14T03:48:49.123Z,-2.29
2024-01-14T03:51:16.066Z,-2.25
2024-01-14T03:53:42.793Z,-2.27
2024-01-14T03:56:09.545Z,-2.27
2024-01-14T03:58:36.456Z,-2.26
2024-01-14T04:01:03.133Z,-2.25
2024-01-14T04:03:29.968Z,-2.23
2024-01-14T04:05:57.121Z,-2.21
2024-01-14T04:08:23.899Z,-2.19
2024-01-14T04:10:50.661Z,-2.17
2024-01-14T04:13:17.469Z,-2.15
2024-01-14T04:15:44.223Z,-2.12
2024-01-14T04:18:11.101Z,-2.11
2024-01-14T04:20:37.923Z,-2.08
2024-01-14T04:23:04.591Z,-2.06
2024-01-14T04:25:33.547Z,-2.03
2024-01-14T04:28:00.806Z,-2.03
2024-01-14T04:30:27.712Z,-2.00
2024-01-14T04:32:54.538Z,-1.98
2024-01-14T04:35:21.304Z,-1.96
2024-01-14T04:37:47.919Z,-1.94
2024-01-14T04:40:14.742Z,-1.94
2024-01-14T04:42:41.405Z,-1.92
2024-01-14T04:45:08.887Z,-1.91
2024-01-14T04:47:35.671Z,-1.91
2024-01-14T04:50:02.790Z,-1.92
2024-01-14T04:52:29.504Z,-1.93
2024-01-14T04:54:56.213Z,-1.91
2024-01-14T04:57:22.966Z,-1.93
2024-01-14T04:59:49.732Z,-1.93
2024-01-14T05:02:16.505Z,-1.94
2024-01-14T05:04:43.195Z,-1.94
2024-01-14T05:07:09.808Z,-1.95
2024-01-14T05:09:36.685Z,-2.01
2024-01-14T05:12:03.636Z,-1.99
2024-01-14T05:14:30.416Z,-2.00
2024-01-14T05:16:57.129Z,-2.02
2024-01-14T05:19:24.311Z,-2.04
2024-01-14T05:21:54.350Z,-2.05
2024-01-14T05:24:21.220Z,-2.07
2024-01-14T05:26:47.856Z,-2.06
2024-01-14T05:29:14.643Z,-2.06
2024-01-14T05:31:41.513Z,-2.07
2024-01-14T05:34:08.336Z,-2.09
2024-01-14T05:36:35.908Z,-2.09
2024-01-14T05:39:02.646Z,-2.09
2024-01-14T05:41:29.343Z,-2.08
2024-01-14T05:43:56.043Z,-2.09
2024-01-14T05:46:22.704Z,-2.08
2024-01-14T05:48:49.616Z,-2.08
2024-01-14T05:51:16.450Z,-2.08
2024-01-14T05:53:43.301Z,-2.08
2024-01-14T05:56:10.070Z,-2.07
2024-01-14T05:58:36.876Z,-2.07
2024-01-14T06:01:04.494Z,-2.06
2024-01-14T06:03:31.248Z,-2.05
2024-01-14T06:05:58.094Z,-2.04
2024-01-14T06:08:24.924Z,-2.03
2024-01-14T06:10:51.566Z,-2.02
2024-01-14T06:13:18.300Z,-2.01
2024-01-14T06:15:45.010Z,-1.99
2024-01-14T06:18:11.992Z,-1.99
2024-01-14T06:20:38.885Z,-1.98
2024-01-14T06:23:05.942Z,-1.97
2024-01-14T06:25:32.741Z,-1.96
2024-01-14T06:27:59.371Z,-1.95
2024-01-14T06:30:26.227Z,-1.95
2024-01-14T06:32:56.622Z,-1.94
2024-01-14T06:35:23.428Z,-1.94
2024-01-14T06:37:51.546Z,-1.93
2024-01-14T06:40:24.144Z,-1.92
2024-01-14T06:42:55.575Z,-1.93
2024-01-14T06:45:22.440Z,-1.93
2024-01-14T06:47:49.328Z,-1.91
2024-01-14T06:50:16.892Z,-1.91
2024-01-14T06:52:43.804Z,-1.90
2024-01-14T06:55:12.882Z,-1.89
2024-01-14T06:57:40.099Z,-1.88
2024-01-14T07:00:09.635Z,-1.87
2024-01-14T07:02:36.667Z,-1.86
2024-01-14T07:05:04.228Z,-1.88
2024-01-14T07:07:30.999Z,-1.90
2024-01-14T07:09:57.700Z,-1.90
2024-01-14T07:12:25.744Z,-1.91
2024-01-14T07:14:52.802Z,-1.91
2024-01-14T07:17:20.323Z,-1.91
2024-01-14T07:19:47.212Z,-1.90
2024-01-14T07:22:14.163Z,-1.90
2024-01-14T07:24:40.868Z,-1.91
2024-01-14T07:27:07.669Z,-2.01
2024-01-14T07:29:34.307Z,-2.47
2024-01-14T07:32:04.359Z,-3.31
2024-01-14T07:34:33.344Z,-3.86
2024-01-14T07:37:00.081Z,-4.42
2024-01-14T07:39:27.108Z,-5.44
2024-01-14T07:41:53.857Z,-5.50
2024-01-14T07:44:21.357Z,-5.62
2024-01-14T07:46:48.036Z,-5.70
2024-01-14T07:49:16.185Z,-5.83
2024-01-14T07:51:42.955Z,-5.96
2024-01-14T07:54:09.979Z,-6.21
2024-01-14T07:56:36.695Z,-6.45
2024-01-14T07:59:03.338Z,-6.59
2024-01-14T08:01:31.394Z,-6.67
2024-01-14T08:03:58.423Z,-6.69
2024-01-14T08:06:25.635Z,-6.86
2024-01-14T08:08:52.602Z,-6.84
2024-01-14T08:11:38.016Z,-6.97
2024-01-14T08:14:05.686Z,-7.09
2024-01-14T08:16:32.314Z,-7.03
2024-01-14T08:18:59.205Z,-6.95
2024-01-14T08:21:25.981Z,-6.82
2024-01-14T08:23:52.891Z,-6.90
2024-01-14T08:26:19.665Z,-6.93
2024-01-14T08:28:46.420Z,-6.93
2024-01-14T08:31:13.303Z,-6.89
2024-01-14T08:33:43.763Z,-6.74
2024-01-14T08:36:11.236Z,-6.76
2024-01-14T08:38:37.934Z,-7.03
2024-01-14T08:41:04.864Z,-6.95
2024-01-14T08:43:31.644Z,-7.03
2024-01-14T08:45:58.388Z,-7.04
2024-01-14T08:48:25.155Z,-7.00
2024-01-14T08:50:52.163Z,-6.96
2024-01-14T08:53:18.794Z,-6.88
2024-01-14T08:55:45.546Z,-6.77
2024-01-14T08:58:12.199Z,-6.78
2024-01-14T09:00:38.926Z,-6.99
2024-01-14T09:03:05.919Z,-7.02
2024-01-14T09:05:32.708Z,-7.01
2024-01-14T09:07:59.391Z,-7.07
2024-01-14T09:10:26.166Z,-7.14
2024-01-14T09:12:52.940Z,-7.17
2024-01-14T09:15:19.703Z,-7.21
2024-01-14T09:17:46.476Z,-7.16
2024-01-14T09:20:13.510Z,-7.01
2024-01-14T09:22:40.492Z,-6.96
2024-01-14T09:25:08.801Z,-6.94
2024-01-14T09:27:36.722Z,-6.94
2024-01-14T09:30:03.701Z,-6.89
2024-01-14T09:32:30.503Z,-6.83
2024-01-14T09:34:57.459Z,-6.65
2024-01-14T09:37:24.519Z,-6.59
2024-01-14T09:40:10.069Z,-6.43
2024-01-14T09:42:40.542Z,-6.38
2024-01-14T09:45:07.578Z,-6.34
2024-01-14T09:47:34.971Z,-6.25
2024-01-14T09:50:02.450Z,-6.20
2024-01-14T09:52:30.646Z,-6.15
2024-01-14T09:54:57.620Z,-6.13
2024-01-14T09:57:25.006Z,-6.16
2024-01-14T09:59:52.345Z,-6.12
2024-01-14T10:02:20.080Z,-6.03
2024-01-14T10:04:48.222Z,-5.98
2024-01-14T10:07:15.598Z,-5.95
2024-01-14T10:09:43.920Z,-5.92
2024-01-14T10:12:11.468Z,-5.89
2024-01-14T10:14:38.917Z,-5.89
2024-01-14T10:17:05.889Z,-5.78
2024-01-14T10:19:32.840Z,-5.71
2024-01-14T10:22:14.516Z,-5.75
2024-01-14T10:24:50.642Z,-5.95
2024-01-14T10:27:33.690Z,-6.08
2024-01-14T10:30:05.719Z,-6.21
2024-01-14T10:33:14.858Z,-6.14
2024-01-14T10:35:20.381Z,-6.17
2024-01-14T10:37:47.428Z,-6.13
2024-01-14T10:40:14.444Z,-6.09
2024-01-14T10:42:41.235Z,-5.96
2024-01-14T10:45:08.524Z,-5.96
2024-01-14T10:47:36.007Z,-5.94
2024-01-14T10:50:03.122Z,-5.87
2024-01-14T10:52:34.147Z,-5.77
2024-01-14T10:55:12.632Z,-5.66
2024-01-14T10:57:39.770Z,-5.57
2024-01-14T11:00:10.942Z,-5.62
2024-01-14T11:02:39.300Z,-5.54
2024-01-14T11:05:10.038Z,-5.50
2024-01-14T11:07:55.516Z,-5.44
2024-01-14T11:10:22.320Z,-5.31
2024-01-14T11:12:54.941Z,-5.13
2024-01-14T11:15:28.944Z,-5.03
2024-01-14T11:18:07.595Z,-5.23
2024-01-14T11:20:47.045Z,-5.04
2024-01-14T11:23:24.417Z,-4.88
2024-01-14T11:25:51.245Z,-4.97
2024-01-14T11:28:18.224Z,-4.95
2024-01-14T11:30:58.729Z,-4.90
2024-01-14T11:33:33.554Z,-4.97
2024-01-14T11:36:01.965Z,-4.87
2024-01-14T11:38:38.954Z,-4.75
2024-01-14T11:41:31.200Z,-4.61
2024-01-14T11:44:03.682Z,-4.49
2024-01-14T11:46:39.548Z,-4.33
2024-01-14T11:49:24.786Z,-4.22
2024-01-14T11:51:55.574Z,-4.14
2024-01-14T11:54:24.250Z,-4.12
2024-01-14T11:56:51.890Z,-4.08
2024-01-14T11:59:33.697Z,-4.10
2024-01-14T12:02:15.079Z,-4.17
2024-01-14T12:04:41.959Z,-4.08
2024-01-14T12:07:08.889Z,-3.86
2024-01-14T12:09:35.920Z,-3.75
2024-01-14T12:12:06.502Z,-3.65
2024-01-14T12:14:38.214Z,-3.68
2024-01-14T12:17:11.366Z,-3.62
2024-01-14T12:19:38.311Z,-3.62
2024-01-14T12:22:05.332Z,-3.56
2024-01-14T12:24:32.335Z,-3.52
2024-01-14T12:26:59.415Z,-3.54
2024-01-14T12:29:26.238Z,-3.53
2024-01-14T12:31:56.771Z,-3.47
2024-01-14T12:34:24.773Z,-3.48
2024-01-14T12:36:54.376Z,-3.52
2024-01-14T12:39:22.213Z,-3.46
2024-01-14T12:41:54.246Z,-3.41
2024-01-14T12:44:23.121Z,-3.37
2024-01-14T12:46:56.464Z,-3.30
2024-01-14T12:49:26.224Z,-3.27
2024-01-14T12:52:02.729Z,-3.32
2024-01-14T12:54:29.756Z,-3.24
2024-01-14T12:57:04.565Z,-3.16
2024-01-14T12:59:32.639Z,-3.09
2024-01-14T13:02:01.793Z,-3.07
2024-01-14T13:04:28.785Z,-3.03
2024-01-14T13:06:58.896Z,-3.02
2024-01-14T13:09:27.160Z,-3.04
2024-01-14T13:11:53.897Z,-3.08
2024-01-14T13:14:20.614Z,-3.09
2024-01-14T13:16:53.826Z,-3.13
2024-01-14T13:19:22.236Z,-3.10
2024-01-14T13:21:49.861Z,-3.01
2024-01-14T13:24:16.905Z,-2.92
2024-01-14T13:26:43.930Z,-3.02
2024-01-14T13:29:12.026Z,-3.11
2024-01-14T13:31:41.269Z,-3.06
2024-01-14T13:34:09.351Z,-2.99
2024-01-14T13:36:36.787Z,-3.02
2024-01-14T13:39:05.871Z,-2.87
2024-01-14T13:41:33.689Z,-2.81
2024-01-14T13:44:12.412Z,-2.75
2024-01-14T13:46:48.037Z,-2.66
2024-01-14T13:49:15.571Z,-2.70
2024-01-14T13:51:42.869Z,-2.75
2024-01-14T13:54:28.686Z,-2.71
2024-01-14T13:56:56.098Z,-2.75
2024-01-14T13:59:23.611Z,-2.94
2024-01-14T14:01:50.975Z,-2.99
2024-01-14T14:04:25.355Z,-3.03
2024-01-14T14:07:11.929Z,-3.16
2024-01-14T14:09:38.796Z,-3.19
2024-01-14T14:12:06.099Z,-3.22
2024-01-14T14:14:33.799Z,-3.23
2024-01-14T14:17:00.493Z,-3.32
2024-01-14T14:19:27.367Z,-3.43
2024-01-14T14:22:00.273Z,-3.35
2024-01-14T14:24:30.625Z,-3.40
2024-01-14T14:26:57.859Z,-3.53
2024-01-14T14:29:26.326Z,-3.55
2024-01-14T14:31:54.393Z,-3.64
2024-01-14T14:34:22.061Z,-3.63
2024-01-14T14:36:50.118Z,-3.51
2024-01-14T14:39:18.292Z,-3.53
2024-01-14T14:41:45.328Z,-3.67
2024-01-14T14:44:12.252Z,-3.76
2024-01-14T14:46:40.154Z,-3.79
2024-01-14T14:49:07.225Z,-3.83
2024-01-14T14:51:39.199Z,-3.84
2024-01-14T14:54:11.809Z,-4.00
2024-01-14T14:56:39.085Z,-4.20
2024-01-14T14:59:06.286Z,-4.35
2024-01-14T15:01:41.180Z,-4.54
2024-01-14T15:04:11.964Z,-4.55
2024-01-14T15:06:40.397Z,-4.58
2024-01-14T15:09:09.397Z,-4.60
2024-01-14T15:11:39.363Z,-4.66
2024-01-14T15:14:10.914Z,-4.78
2024-01-14T15:16:38.114Z,-4.87
2024-01-14T15:19:05.396Z,-4.99
2024-01-14T15:21:52.509Z,-5.05
2024-01-14T15:24:19.425Z,-5.05
2024-01-14T15:26:46.678Z,-5.05
2024-01-14T15:29:13.461Z,-5.01
2024-01-14T15:31:40.417Z,-5.03
2024-01-14T15:34:07.691Z,-4.99
2024-01-14T15:36:34.773Z,-4.91
2024-01-14T15:39:01.707Z,-4.90
2024-01-14T15:41:29.442Z,-4.95
2024-01-14T15:43:56.228Z,-4.91
2024-01-14T15:46:22.934Z,-4.91
2024-01-14T15:48:51.496Z,-4.98
2024-01-14T15:51:19.293Z,-5.06
2024-01-14T15:53:46.134Z,-5.09
2024-01-14T15:56:13.116Z,-5.14
2024-01-14T15:58:41.504Z,-5.14
2024-01-14T16:01:11.991Z,-5.20
2024-01-14T16:03:43.482Z,-5.27
2024-01-14T16:06:12.213Z,-5.34
2024-01-14T16:08:38.854Z,-5.42
2024-01-14T16:11:07.312Z,-5.50
2024-01-14T16:13:38.149Z,-5.60
2024-01-14T16:16:06.450Z,-5.74
2024-01-14T16:18:36.625Z,-5.89
2024-01-14T16:21:06.433Z,-5.95
2024-01-14T16:23:39.502Z,-6.03
2024-01-14T16:26:08.296Z,-6.11
2024-01-14T16:28:35.215Z,-6.18
2024-01-14T16:31:10.481Z,-6.24
2024-01-14T16:33:47.088Z,-6.28
2024-01-14T16:36:16.367Z,-6.34
2024-01-14T16:38:44.236Z,-6.31
2024-01-14T16:41:11.593Z,-6.09
2024-01-14T16:43:38.599Z,-5.87
2024-01-14T16:46:06.569Z,-5.60
2024-01-14T16:48:34.419Z,-5.29
2024-01-14T16:51:08.638Z,-5.01
2024-01-14T16:53:43.648Z,-4.75
2024-01-14T16:56:13.259Z,-4.51
2024-01-14T16:58:42.375Z,-4.27
2024-01-14T17:01:15.806Z,-4.04
2024-01-14T17:03:46.674Z,-3.85
2024-01-14T17:06:15.923Z,-3.65
2024-01-14T17:08:45.544Z,-3.48
2024-01-14T17:11:14.361Z,-3.35
2024-01-14T17:13:41.762Z,-3.21
2024-01-14T17:16:10.663Z,-3.08
2024-01-14T17:18:40.366Z,-2.96
2024-01-14T17:21:08.072Z,-2.87
2024-01-14T17:23:35.377Z,-2.77
2024-01-14T17:26:07.584Z,-2.68
2024-01-14T17:28:54.230Z,-2.56
2024-01-14T17:31:21.176Z,-2.48
2024-01-14T17:33:49.226Z,-2.41
2024-01-14T17:36:18.120Z,-2.31
2024-01-14T17:38:46.514Z,-2.24
2024-01-14T17:41:13.378Z,-2.18
2024-01-14T17:43:40.805Z,-2.11
2024-01-14T17:46:09.725Z,-2.04
2024-01-14T17:48:41.661Z,-1.98
2024-01-14T17:51:10.293Z,-1.90
2024-01-14T17:53:42.631Z,-1.84
2024-01-14T17:56:09.620Z,-1.77
2024-01-14T17:58:36.383Z,-1.72
2024-01-14T18:01:05.583Z,-1.68
2024-01-14T18:03:32.630Z,-1.62
2024-01-14T18:06:00.018Z,-1.58
2024-01-14T18:08:26.946Z,-1.51
2024-01-14T18:10:53.656Z,-1.47
2024-01-14T18:13:21.398Z,-1.40
2024-01-14T18:15:48.968Z,-1.36
2024-01-14T18:18:16.529Z,-1.30
2024-01-14T18:20:44.187Z,-1.26
2024-01-14T18:23:13.550Z,-1.20
2024-01-14T18:25:46.081Z,-1.13
2024-01-14T18:28:14.256Z,-1.09
2024-01-14T18:30:41.339Z,-1.03
2024-01-14T18:33:11.748Z,-1.00
2024-01-14T18:35:45.603Z,-0.97
2024-01-14T18:38:14.670Z,-0.94
2024-01-14T18:40:41.812Z,-0.90
2024-01-14T18:43:09.969Z,-0.86
2024-01-14T18:45:37.849Z,-0.82
2024-01-14T18:48:06.963Z,-0.78
2024-01-14T18:50:35.133Z,-0.74
2024-01-14T18:53:02.500Z,-0.69
2024-01-14T18:55:29.236Z,-0.65
2024-01-14T18:57:56.149Z,-0.62
2024-01-14T19:00:22.999Z,-0.60
2024-01-14T19:02:50.062Z,-0.55
2024-01-14T19:05:18.023Z,-0.51
2024-01-14T19:07:45.550Z,-0.46
2024-01-14T19:10:12.404Z,-0.42
2024-01-14T19:12:39.212Z,-0.38
2024-01-14T19:15:06.913Z,-0.36
2024-01-14T19:17:34.252Z,-0.31
2024-01-14T19:20:01.715Z,-0.28
2024-01-14T19:22:28.920Z,-0.24
2024-01-14T19:24:55.838Z,-0.20
2024-01-14T19:27:23.324Z,-0.19
2024-01-14T19:29:50.529Z,-0.13
2024-01-14T19:32:17.411Z,-0.08
2024-01-14T19:34:44.542Z,-0.06
2024-01-14T19:37:11.689Z,-0.04
2024-01-14T19:39:42.975Z,0.01
2024-01-14T19:42:11.661Z,0.02
2024-01-14T19:44:38.765Z,0.07
2024-01-14T19:47:05.876Z,0.07
2024-01-14T19:49:32.764Z,0.11
2024-01-14T19:51:59.823Z,0.13
2024-01-14T19:54:26.654Z,0.16
2024-01-14T19:56:54.294Z,0.21
2024-01-14T19:59:24.124Z,0.22
2024-01-14T20:01:50.981Z,0.24
2024-01-14T20:04:17.938Z,0.25
2024-01-14T20:06:50.769Z,0.29
2024-01-14T20:09:23.760Z,0.30
2024-01-14T20:11:53.765Z,0.32
2024-01-14T20:14:21.086Z,0.36
2024-01-14T20:16:49.023Z,0.36
2024-01-14T20:19:16.443Z,0.40
2024-01-14T20:21:43.296Z,0.44
2024-01-14T20:24:10.794Z,0.45
2024-01-14T20:26:57.547Z,0.47
2024-01-14T20:29:24.388Z,0.50
2024-01-14T20:31:51.152Z,0.53
2024-01-14T20:34:18.418Z,0.55
2024-01-14T20:36:45.580Z,0.55
2024-01-14T20:39:12.367Z,0.58
2024-01-14T20:41:39.001Z,0.57
2024-01-14T20:44:06.272Z,0.58
2024-01-14T20:46:33.005Z,0.57
2024-01-14T20:48:59.794Z,0.59
2024-01-14T20:51:27.232Z,0.60
2024-01-14T20:53:53.965Z,0.60
2024-01-14T20:56:20.888Z,0.62
2024-01-14T20:58:47.562Z,0.64
2024-01-14T21:01:15.475Z,0.67
2024-01-14T21:03:42.582Z,0.67
2024-01-14T21:06:14.842Z,0.70
2024-01-14T21:08:43.086Z,0.72
2024-01-14T21:11:09.689Z,0.74
2024-01-14T21:13:36.451Z,0.77
2024-01-14T21:16:03.191Z,0.80
2024-01-14T21:18:30.029Z,0.84
2024-01-14T21:20:57.288Z,0.84
2024-01-14T21:23:24.081Z,0.87
2024-01-14T21:25:50.823Z,0.89
2024-01-14T21:28:18.546Z,0.90
2024-01-14T21:30:45.360Z,0.91
2024-01-14T21:33:12.283Z,0.93
2024-01-14T21:35:39.013Z,0.95
2024-01-14T21:38:06.268Z,0.96
2024-01-14T21:40:32.995Z,0.98
2024-01-14T21:42:59.723Z,0.99
2024-01-14T21:45:28.618Z,1.01
2024-01-14T21:47:55.705Z,1.02
2024-01-14T21:50:22.836Z,1.04
2024-01-14T21:52:49.772Z,1.07
2024-01-14T21:55:16.490Z,1.07
2024-01-14T21:57:43.429Z,1.08
2024-01-14T22:00:11.023Z,1.11
2024-01-14T22:02:38.397Z,1.10
2024-01-14T22:05:06.571Z,1.14
2024-01-14T22:07:33.827Z,1.16
2024-01-14T22:10:01.162Z,1.18
2024-01-14T22:12:28.134Z,1.18
2024-01-14T22:14:54.827Z,1.20
2024-01-14T22:17:21.610Z,1.19
2024-01-14T22:19:48.508Z,1.21
2024-01-14T22:22:15.422Z,1.22
2024-01-14T22:24:45.980Z,1.24
2024-01-14T22:27:13.026Z,1.24
2024-01-14T22:29:40.232Z,1.26
2024-01-14T22:32:07.400Z,1.27
2024-01-14T22:34:34.576Z,1.27
2024-01-14T22:37:01.502Z,1.25
2024-01-14T22:39:28.276Z,1.25
2024-01-14T22:41:55.011Z,1.25
2024-01-14T22:44:22.136Z,1.24
2024-01-14T22:46:49.064Z,1.27
2024-01-14T22:49:16.316Z,1.27
2024-01-14T22:51:44.013Z,1.29
2024-01-14T22:54:12.390Z,1.27
2024-01-14T22:56:39.188Z,1.28
2024-01-14T22:59:05.905Z,1.27
2024-01-14T23:01:32.821Z,1.29
2024-01-14T23:03:59.746Z,1.29
2024-01-14T23:06:27.087Z,1.29
2024-01-14T23:08:53.950Z,1.30
2024-01-14T23:11:20.727Z,1.29
2024-01-14T23:13:47.352Z,1.29
2024-01-14T23:16:14.185Z,1.29
2024-01-14T23:18:41.230Z,1.31
2024-01-14T23:21:08.114Z,1.32
2024-01-14T23:23:34.766Z,1.32
2024-01-14T23:26:01.780Z,1.33
2024-01-14T23:28:28.753Z,1.34
2024-01-14T23:30:55.712Z,1.34
2024-01-14T23:33:22.571Z,1.35
2024-01-14T23:35:49.392Z,1.36
2024-01-14T23:38:16.047Z,1.35
2024-01-14T23:40:42.874Z,1.35
2024-01-14T23:43:09.715Z,1.35
2024-01-14T23:45:36.465Z,1.36
2024-01-14T23:48:03.424Z,1.34
2024-01-14T23:50:30.703Z,1.35
2024-01-14T23:52:57.388Z,1.35
2024-01-14T23:55:24.158Z,1.35
2024-01-14T23:57:50.860Z,1.34
